Time;durP1;ratioP1;P1;durP2;ratioP2;P2;SDS_P1;SDS_P2;PMS_P1;PMS_P2;Temp;Humidity;BMP_temperature;BMP_pressure;BME280_temperature;BME280_humidity;BME280_pressure;Samples;Min_cycle;Max_cycle;Signal;HPM_P1;HPM_P2
2024/02/21 00:00:11;;;;;;;32.10;13.93;;;;;;;8.00;100.00;101788.03;4966895;28;20034;-75
2024/02/21 00:02:37;;;;;;;34.75;14.38;;;;;;;8.00;100.00;101790.69;4977000;28;20034;-76
2024/02/21 00:05:03;;;;;;;36.10;13.95;;;;;;;7.98;100.00;101785.56;4961930;28;20056;-78
2024/02/21 00:07:30;;;;;;;32.83;13.98;;;;;;;7.99;100.00;101789.84;4980749;28;20038;-75
2024/02/21 00:09:56;;;;;;;34.10;14.88;;;;;;;7.99;100.00;101781.03;4969783;28;20038;-80
2024/02/21 00:12:21;;;;;;;29.52;14.30;;;;;;;8.00;100.00;101780.03;4970459;28;20038;-75
2024/02/21 00:14:47;;;;;;;27.67;13.98;;;;;;;7.99;100.00;101778.38;4972848;28;20092;-75
2024/02/21 00:17:13;;;;;;;31.55;15.25;;;;;;;7.96;100.00;101771.66;4967980;28;20030;-76
2024/02/21 00:19:38;;;;;;;29.60;14.18;;;;;;;7.93;100.00;101764.94;4970769;28;20133;-75
2024/02/21 00:22:04;;;;;;;31.48;14.50;;;;;;;7.93;100.00;101766.78;4969316;28;20037;-77
2024/02/21 00:24:30;;;;;;;30.65;13.75;;;;;;;7.93;100.00;101770.25;4969836;28;20038;-75
2024/02/21 00:26:55;;;;;;;28.42;14.63;;;;;;;7.92;100.00;101755.31;4956852;28;20049;-74
2024/02/21 00:29:22;;;;;;;29.73;13.77;;;;;;;7.92;100.00;101757.13;4966266;28;20053;-75
2024/02/21 00:31:49;;;;;;;32.05;13.20;;;;;;;7.94;100.00;101760.41;4973021;28;20027;-74
2024/02/21 00:34:14;;;;;;;30.45;14.30;;;;;;;7.94;100.00;101749.75;4982789;28;20042;-79
2024/02/21 00:36:40;;;;;;;31.20;14.32;;;;;;;7.93;100.00;101751.59;4971825;28;20038;-77
2024/02/21 00:39:06;;;;;;;34.67;15.07;;;;;;;7.89;100.00;101739.75;4968620;28;20078;-80
2024/02/21 00:41:32;;;;;;;34.38;14.63;;;;;;;7.89;100.00;101739.75;4987421;28;20395;-73
2024/02/21 00:43:57;;;;;;;31.95;14.48;;;;;;;7.88;100.00;101735.44;4925708;28;20385;-79
2024/02/21 00:46:23;;;;;;;33.13;14.30;;;;;;;7.88;100.00;101727.44;4971076;28;20502;-78
2024/02/21 00:48:50;;;;;;;31.23;15.23;;;;;;;7.89;100.00;101737.06;4984921;28;20063;-78
2024/02/21 00:51:16;;;;;;;32.08;14.68;;;;;;;7.86;100.00;101724.22;4978074;28;20377;-80
2024/02/21 00:53:42;;;;;;;35.40;15.93;;;;;;;7.87;100.00;101723.16;4950236;28;20468;-78
2024/02/21 00:56:08;;;;;;;;;;;;;;;7.89;100.00;101726.41;4968908;28;20144;-77
2024/02/21 00:58:34;;;;;;;32.05;14.77;;;;;;;7.90;100.00;101728.03;4952458;28;20368;-78
2024/02/21 01:01:03;;;;;;;34.35;15.88;;;;;;;7.88;100.00;101719.44;4965515;28;20038;-75
2024/02/21 01:03:29;;;;;;;33.35;15.63;;;;;;;7.92;100.00;101725.13;4968059;28;20030;-80
2024/02/21 01:05:55;;;;;;;34.22;15.93;;;;;;;7.92;100.00;101722.47;4964793;28;20038;-77
2024/02/21 01:08:21;;;;;;;29.58;15.32;;;;;;;7.93;100.00;101711.59;4984143;28;20057;-77
2024/02/21 01:10:47;;;;;;;33.13;16.23;;;;;;;7.94;100.00;101712.41;4984423;28;20042;-80
2024/02/21 01:13:13;;;;;;;37.08;17.25;;;;;;;7.92;100.00;101704.63;4965470;28;20118;-77
2024/02/21 01:15:38;;;;;;;35.83;15.95;;;;;;;7.96;100.00;101709.50;4980525;28;20048;-77
2024/02/21 01:18:05;;;;;;;35.63;16.33;;;;;;;7.97;100.00;101695.09;4963971;28;20041;-74
2024/02/21 01:20:30;;;;;;;37.38;17.08;;;;;;;7.97;100.00;101690.59;4959343;28;20035;-74
2024/02/21 01:22:56;;;;;;;33.17;16.73;;;;;;;7.96;100.00;101685.50;4968339;28;20046;-79
2024/02/21 01:25:21;;;;;;;38.42;17.80;;;;;;;7.97;100.00;101673.78;4966463;28;20038;-77
2024/02/21 01:27:47;;;;;;;39.63;17.33;;;;;;;7.97;100.00;101681.78;4965458;28;20038;-76
2024/02/21 01:30:13;;;;;;;31.50;16.67;;;;;;;7.97;100.00;101669.25;4980053;28;20034;-77
2024/02/21 01:32:39;;;;;;;33.75;16.88;;;;;;;7.96;100.00;101670.28;4980241;28;20158;-79
2024/02/21 01:35:05;;;;;;;37.45;18.35;;;;;;;7.95;100.00;101676.69;4963723;28;20053;-81
2024/02/21 01:37:30;;;;;;;33.05;16.45;;;;;;;7.99;100.00;101677.00;4966138;28;20422;-78
2024/02/21 01:39:57;;;;;;;35.15;16.38;;;;;;;8.00;100.00;101678.66;4966830;28;20712;-77
2024/02/21 01:42:22;;;;;;;35.22;16.70;;;;;;;7.98;100.00;101675.41;4979957;28;20045;-78
2024/02/21 01:44:48;;;;;;;26.55;16.20;;;;;;;7.97;100.00;101660.44;4966844;28;20039;-76
2024/02/21 01:47:14;;;;;;;35.15;15.82;;;;;;;7.97;100.00;101661.25;4966255;28;20034;-76
2024/02/21 01:49:41;;;;;;;35.83;17.45;;;;;;;7.94;100.00;101649.19;4980736;28;20096;-77
2024/02/21 01:52:07;;;;;;;;;;;;;;;7.95;100.00;101644.66;4968087;28;20243;-77
2024/02/21 01:54:33;;;;;;;31.90;17.00;;;;;;;7.90;100.00;101645.34;4935018;28;19913;-78
2024/02/21 01:56:59;;;;;;;33.60;15.32;;;;;;;7.91;100.00;101646.97;4988808;28;20713;-78
2024/02/21 01:59:24;;;;;;;36.80;15.98;;;;;;;7.87;100.00;101637.81;4966753;28;20038;-80
2024/02/21 02:01:52;;;;;;;34.22;16.60;;;;;;;7.86;100.00;101640.72;4960355;28;20092;-78
2024/02/21 02:04:20;;;;;;;36.67;16.38;;;;;;;7.84;100.00;101632.94;4982354;28;20040;-79
2024/02/21 02:06:46;;;;;;;33.28;16.08;;;;;;;7.82;100.00;101624.34;4985297;28;20034;-77
2024/02/21 02:09:11;;;;;;;37.63;17.58;;;;;;;7.81;100.00;101617.41;4969946;28;20412;-76
2024/02/21 02:11:37;;;;;;;33.92;16.55;;;;;;;7.81;100.00;101611.25;4967206;28;20578;-78
2024/02/21 02:14:03;;;;;;;36.28;18.00;;;;;;;7.82;100.00;101603.00;4967760;28;20557;-78
2024/02/21 02:16:28;;;;;;;33.47;18.40;;;;;;;7.78;100.00;101599.16;4964360;28;20078;-77
2024/02/21 02:18:54;;;;;;;36.80;16.58;;;;;;;7.80;100.00;101594.44;4984851;28;20045;-77
2024/02/21 02:21:28;;;;;;;37.53;17.08;;;;;;;7.81;100.00;101596.06;4972407;28;20030;-72
2024/02/21 02:23:54;;;;;;;35.22;18.50;;;;;;;7.82;100.00;101591.53;4972289;28;20086;-75
2024/02/21 02:26:19;;;;;;;40.80;17.90;;;;;;;7.82;100.00;101568.34;4987282;28;20038;-74
2024/02/21 02:28:45;;;;;;;33.55;17.13;;;;;;;7.78;100.00;101556.50;4972631;28;20039;-77
2024/02/21 02:31:11;;;;;;;37.10;19.02;;;;;;;7.76;100.00;101549.78;4970963;28;20769;-72
2024/02/21 02:33:36;;;;;;;39.15;18.45;;;;;;;7.74;100.00;101536.69;4962869;28;20035;-72
2024/02/21 02:36:02;;;;;;;35.03;17.60;;;;;;;7.73;100.00;101537.75;4983588;28;20062;-76
2024/02/21 02:38:28;;;;;;;37.40;17.35;;;;;;;7.75;100.00;101532.19;4988683;28;20064;-74
2024/02/21 02:40:54;;;;;;;33.92;18.65;;;;;;;7.75;100.00;101524.19;4972867;28;20038;-79
2024/02/21 02:43:20;;;;;;;37.35;19.63;;;;;;;7.75;100.00;101517.00;4969854;28;20457;-73
2024/02/21 02:45:45;;;;;;;36.45;18.70;;;;;;;7.72;100.00;101517.44;4945284;28;20034;-76
2024/02/21 02:48:11;;;;;;;43.05;19.65;;;;;;;7.72;100.00;101512.09;4956081;28;20048;-75
2024/02/21 02:50:36;;;;;;;36.90;19.52;;;;;;;7.71;100.00;101497.16;4972559;28;20472;-74
2024/02/21 02:53:02;;;;;;;43.17;20.73;;;;;;;7.69;100.00;101488.59;4973628;28;20398;-76
2024/02/21 02:55:28;;;;;;;41.25;18.77;;;;;;;7.72;100.00;101485.44;4975758;28;20037;-73
2024/02/21 02:57:54;;;;;;;41.08;20.95;;;;;;;7.72;100.00;101484.63;4974046;28;20034;-76
2024/02/21 03:00:20;;;;;;;37.80;19.73;;;;;;;7.73;100.00;101491.59;4969722;28;20076;-72
2024/02/21 03:02:48;;;;;;;36.55;19.67;;;;;;;7.73;100.00;101502.28;4981073;28;20393;-79
2024/02/21 03:05:16;;;;;;;39.92;19.60;;;;;;;7.76;100.00;101502.59;4951663;28;20034;-72
2024/02/21 03:07:43;;;;;;;43.13;20.25;;;;;;;7.80;100.00;101514.44;4954750;28;20030;-78
2024/02/21 03:10:09;;;;;;;41.13;19.10;;;;;;;7.79;100.00;101512.81;4979170;28;20042;-76
2024/02/21 03:12:35;;;;;;;41.88;19.10;;;;;;;7.79;100.00;101506.66;4955741;28;20031;-79
2024/02/21 03:15:00;;;;;;;46.22;19.83;;;;;;;7.82;100.00;101532.88;4940533;28;20061;-78
2024/02/21 03:17:29;;;;;;;34.33;17.90;;;;;;;7.86;100.00;101545.53;4966479;28;20037;-75
2024/02/21 03:19:59;;;;;;;38.45;20.38;;;;;;;7.86;100.00;101540.19;4953095;28;20048;-75
2024/02/21 03:22:25;;;;;;;39.13;18.58;;;;;;;7.90;100.00;101532.50;4980523;28;20023;-75
2024/02/21 03:24:51;;;;;;;43.38;18.63;;;;;;;7.95;100.00;101537.97;4963436;28;20562;-77
2024/02/21 03:27:17;;;;;;;43.08;19.02;;;;;;;7.94;100.00;101529.16;4971257;28;20031;-72
2024/02/21 03:29:42;;;;;;;39.45;17.77;;;;;;;7.98;100.00;101532.16;4990203;28;20039;-79
2024/02/21 03:32:08;;;;;;;31.63;18.50;;;;;;;8.02;100.00;101532.53;4984505;28;20331;-73
2024/02/21 03:34:33;;;;;;;35.58;17.70;;;;;;;8.03;100.00;101534.13;4972109;28;20030;-74
2024/02/21 03:36:59;;;;;;;37.88;18.25;;;;;;;8.01;100.00;101530.91;4955154;28;20057;-75
2024/02/21 03:39:25;;;;;;;35.58;16.55;;;;;;;8.04;100.00;101533.09;4957663;28;20050;-76
2024/02/21 03:41:51;;;;;;;40.22;18.70;;;;;;;8.07;100.00;101540.66;4978190;28;20022;-72
2024/02/21 03:44:17;;;;;;;43.60;17.85;;;;;;;8.08;100.00;101537.75;4966560;28;20035;-73
2024/02/21 03:46:42;;;;;;;33.25;16.58;;;;;;;8.10;100.00;101540.16;4961434;28;20069;-77
2024/02/21 03:49:08;;;;;;;35.53;16.83;;;;;;;8.11;100.00;101541.78;4974391;28;20042;-73
2024/02/21 03:51:34;;;;;;;31.95;15.95;;;;;;;8.13;100.00;101532.53;4949344;28;20046;-73
2024/02/21 03:53:59;;;;;;;39.75;17.58;;;;;;;8.13;100.00;101526.38;4967649;28;20046;-73
2024/02/21 03:56:25;;;;;;;42.05;16.83;;;;;;;8.13;100.00;101539.72;4983300;28;20031;-74
2024/02/21 03:58:51;;;;;;;36.28;16.58;;;;;;;8.14;100.00;101530.66;4986243;28;20392;-74
2024/02/21 04:01:16;;;;;;;32.58;16.17;;;;;;;8.13;100.00;101534.38;4971754;28;20065;-73
2024/02/21 04:03:44;;;;;;;32.63;16.02;;;;;;;8.13;100.00;101529.03;4960046;28;20038;-72
2024/02/21 04:06:09;;;;;;;34.22;16.60;;;;;;;8.10;100.00;101519.63;4960822;28;20097;-72
2024/02/21 04:08:35;;;;;;;33.00;15.63;;;;;;;8.10;100.00;101521.50;4970594;28;20042;-75
2024/02/21 04:11:01;;;;;;;35.50;17.45;;;;;;;8.04;100.00;101514.41;4992623;28;20042;-75
2024/02/21 04:13:27;;;;;;;36.80;17.98;;;;;;;7.99;100.00;101522.31;4976144;28;20498;-77
2024/02/21 04:15:53;;;;;;;41.95;18.50;;;;;;;7.97;100.00;101519.88;4961389;28;20042;-77
2024/02/21 04:18:18;;;;;;;40.03;19.00;;;;;;;7.93;100.00;101519.53;4975439;28;20046;-77
2024/02/21 04:20:44;;;;;;;37.90;17.70;;;;;;;7.87;100.00;101517.81;4996877;28;20030;-73
2024/02/21 04:23:10;;;;;;;36.53;17.08;;;;;;;7.87;100.00;101520.47;4953519;28;20492;-76
2024/02/21 04:25:36;;;;;;;34.85;17.13;;;;;;;7.88;100.00;101514.09;4958844;28;20034;-76
2024/02/21 04:28:02;;;;;;;41.00;17.08;;;;;;;7.85;100.00;101506.53;4962658;28;20093;-78
2024/02/21 04:30:28;;;;;;;38.20;20.27;;;;;;;7.83;100.00;101503.31;5001947;23;20034;-71
2024/02/21 04:32:54;;;;;;;32.95;17.15;;;;;;;7.81;100.00;101497.41;5014634;28;20038;-71
2024/02/21 04:35:20;;;;;;;32.10;16.65;;;;;;;7.79;100.00;101499.50;5005600;28;20071;-71
2024/02/21 04:37:46;;;;;;;;;;;;;;;7.81;100.00;101492.06;5031128;28;20033;-70
2024/02/21 04:40:14;;;;;;;31.80;15.98;;;;;;;7.82;100.00;101490.22;5044117;28;19920;-71
2024/02/21 04:42:39;;;;;;;34.67;15.23;;;;;;;7.80;100.00;101503.78;5022032;28;20142;-71
2024/02/21 04:45:06;;;;;;;31.25;15.75;;;;;;;7.79;100.00;101496.81;5040128;28;20048;-71
2024/02/21 04:47:31;;;;;;;34.10;17.10;;;;;;;7.82;100.00;101500.88;5040401;28;20501;-72
2024/02/21 04:49:57;;;;;;;37.40;19.20;;;;;;;7.79;100.00;101496.81;5056569;28;20040;-72
2024/02/21 04:52:23;;;;;;;33.75;16.42;;;;;;;7.80;100.00;101494.97;5036557;28;20037;-72
2024/02/21 04:54:49;;;;;;;32.60;16.10;;;;;;;7.77;100.00;101487.41;5033304;28;20037;-71
2024/02/21 04:57:16;;;;;;;28.08;14.93;;;;;;;7.75;100.00;101489.50;5030617;28;20044;-71
2024/02/21 04:59:46;;;;;;;34.05;16.60;;;;;;;7.76;100.00;101491.13;5039616;28;20413;-72
2024/02/21 05:02:13;;;;;;;28.63;16.23;;;;;;;7.74;100.00;101488.72;5022123;28;20037;-70
2024/02/21 05:04:38;;;;;;;27.40;15.73;;;;;;;7.73;100.00;101481.75;5018620;28;20048;-71
2024/02/21 05:07:05;;;;;;;27.35;14.88;;;;;;;7.72;100.00;101490.78;5040865;28;20080;-72
2024/02/21 05:09:30;;;;;;;;;;;;;;;7.73;100.00;101487.09;5032801;28;20123;-72
2024/02/21 05:11:56;;;;;;;29.50;15.88;;;;;;;7.71;100.00;101489.16;5037973;28;19916;-71
2024/02/21 05:14:22;;;;;;;28.90;14.93;;;;;;;7.69;100.00;101474.44;5006570;28;20045;-71
2024/02/21 05:16:47;;;;;;;28.83;15.60;;;;;;;7.69;100.00;101477.91;5033306;28;20067;-71
2024/02/21 05:19:13;;;;;;;25.13;15.10;;;;;;;7.68;100.00;101478.16;5027336;28;20463;-71
2024/02/21 05:21:38;;;;;;;27.77;14.68;;;;;;;7.68;100.00;101483.50;5043169;28;20486;-71
2024/02/21 05:24:04;;;;;;;26.02;13.73;;;;;;;7.65;100.00;101476.75;5031557;28;20041;-71
2024/02/21 05:26:30;;;;;;;27.13;14.52;;;;;;;7.66;100.00;101479.19;5040002;28;20037;-71
2024/02/21 05:28:56;;;;;;;26.70;14.43;;;;;;;7.67;100.00;101480.00;5022406;28;20406;-71
2024/02/21 05:31:22;;;;;;;23.75;12.70;;;;;;;7.65;100.00;101477.59;5037634;28;20623;-70
2024/02/21 05:33:47;;;;;;;24.73;12.98;;;;;;;7.67;100.00;101485.34;5020450;28;20037;-71
2024/02/21 05:36:14;;;;;;;20.15;11.88;;;;;;;7.69;100.00;101474.44;5020271;28;20124;-71
2024/02/21 05:38:39;;;;;;;20.80;11.38;;;;;;;7.69;100.00;101479.78;5040263;28;20036;-72
2024/02/21 05:41:05;;;;;;;23.25;13.02;;;;;;;7.68;100.00;101472.81;5033852;28;20031;-71
2024/02/21 05:43:31;;;;;;;22.75;11.80;;;;;;;7.68;100.00;101478.97;5019965;28;20041;-71
2024/02/21 05:45:57;;;;;;;20.17;12.10;;;;;;;7.67;100.00;101469.34;5001191;28;20029;-70
2024/02/21 05:48:23;;;;;;;22.13;12.48;;;;;;;7.69;100.00;101472.59;5037700;28;20075;-71
2024/02/21 05:50:49;;;;;;;21.15;12.10;;;;;;;7.70;100.00;101474.19;5029602;28;20423;-70
2024/02/21 05:53:14;;;;;;;21.38;11.70;;;;;;;7.69;100.00;101475.25;5036944;28;20041;-70
2024/02/21 05:55:40;;;;;;;19.80;11.50;;;;;;;7.67;100.00;101477.34;5028713;28;20041;-72
2024/02/21 05:58:06;;;;;;;22.27;11.13;;;;;;;7.66;100.00;101473.06;5037335;28;20164;-72
2024/02/21 06:00:32;;;;;;;19.25;10.68;;;;;;;7.65;100.00;101469.59;5035188;28;20111;-72
2024/02/21 06:02:58;;;;;;;17.92;10.57;;;;;;;7.68;100.00;101475.50;5035703;28;20103;-70
2024/02/21 06:05:24;;;;;;;18.58;10.77;;;;;;;7.70;100.00;101474.19;5034343;28;20111;-70
2024/02/21 06:07:50;;;;;;;18.25;10.25;;;;;;;7.70;100.00;101466.19;5033018;28;20478;-70
2024/02/21 06:10:16;;;;;;;15.25;9.38;;;;;;;7.71;100.00;101480.34;5033587;28;20074;-71
2024/02/21 06:12:41;;;;;;;16.38;10.05;;;;;;;7.69;100.00;101475.25;5017626;28;20455;-74
2024/02/21 06:15:07;;;;;;;17.88;9.65;;;;;;;7.71;100.00;101489.16;5024270;28;20089;-71
2024/02/21 06:17:33;;;;;;;15.35;9.35;;;;;;;7.72;100.00;101474.78;5033138;28;20041;-71
2024/02/21 06:19:58;;;;;;;18.02;10.20;;;;;;;7.73;100.00;101480.94;5037266;28;20461;-71
2024/02/21 06:22:24;;;;;;;16.30;9.57;;;;;;;7.72;100.00;101485.44;5030525;28;20422;-71
2024/02/21 06:24:50;;;;;;;14.68;8.85;;;;;;;7.70;100.00;101476.06;5035572;28;20524;-72
2024/02/21 06:27:17;;;;;;;15.55;9.38;;;;;;;7.68;100.00;101476.28;5038379;28;20841;-71
2024/02/21 06:29:42;;;;;;;;;;;;;;;7.67;100.00;101482.69;5022659;28;20100;-70
2024/02/21 06:32:08;;;;;;;16.42;9.32;;;;;;;7.66;100.00;101487.19;5037187;28;20562;-71
2024/02/21 06:34:34;;;;;;;17.75;8.80;;;;;;;7.66;100.00;101484.53;5033651;28;20032;-70
2024/02/21 06:37:00;;;;;;;14.20;7.85;;;;;;;7.68;100.00;101476.28;5039052;28;20033;-70
2024/02/21 06:39:25;;;;;;;15.32;8.48;;;;;;;7.68;100.00;101476.28;5017845;28;20040;-72
2024/02/21 06:41:52;;;;;;;16.73;9.05;;;;;;;7.68;100.00;101478.97;5039212;28;20057;-71
2024/02/21 06:44:18;;;;;;;14.82;8.77;;;;;;;7.69;100.00;101485.91;5032150;28;20033;-71
2024/02/21 06:46:44;;;;;;;13.18;7.85;;;;;;;7.66;100.00;101475.72;5023419;28;20402;-72
2024/02/21 06:49:15;;;;;;;14.73;7.75;;;;;;;7.66;100.00;101475.72;5039178;28;20741;-72
2024/02/21 06:51:42;;;;;;;13.82;7.40;;;;;;;7.69;100.00;101479.78;5032820;28;20033;-72
2024/02/21 06:54:09;;;;;;;14.73;8.18;;;;;;;7.69;100.00;101485.91;5022032;28;20094;-72
2024/02/21 06:56:36;;;;;;;12.63;7.50;;;;;;;7.70;100.00;101490.19;5031887;28;20120;-72
2024/02/21 06:59:03;;;;;;;11.45;7.32;;;;;;;7.72;100.00;101485.44;5033641;28;20113;-70
2024/02/21 07:01:30;;;;;;;11.88;8.05;;;;;;;7.71;100.00;101483.81;5038003;28;20068;-70
2024/02/21 07:03:56;;;;;;;11.43;7.13;;;;;;;7.71;100.00;101483.81;5031432;28;20469;-71
2024/02/21 07:06:22;;;;;;;15.65;8.73;;;;;;;7.75;100.00;101490.31;5039225;28;20045;-70
2024/02/21 07:08:48;;;;;;;13.27;7.93;;;;;;;7.75;100.00;101485.00;5002053;28;20029;-70
2024/02/21 07:11:13;;;;;;;13.23;7.95;;;;;;;7.76;100.00;101486.59;5015812;28;20047;-70
2024/02/21 07:13:39;;;;;;;12.63;8.20;;;;;;;7.74;100.00;101485.22;5018582;28;20038;-71
2024/02/21 07:16:06;;;;;;;11.98;7.15;;;;;;;7.78;100.00;101497.84;5020795;28;20029;-71
2024/02/21 07:18:32;;;;;;;12.70;7.75;;;;;;;7.79;100.00;101486.16;5023787;28;20114;-72
2024/02/21 07:20:58;;;;;;;14.15;8.50;;;;;;;7.82;100.00;101484.88;5039377;28;20053;-71
2024/02/21 07:23:24;;;;;;;;;;;;;;;7.79;100.00;101479.97;5034563;28;20041;-72
2024/02/21 07:25:49;;;;;;;11.38;7.13;;;;;;;7.82;100.00;101485.69;5045536;28;19916;-72
2024/02/21 07:28:17;;;;;;;12.00;7.05;;;;;;;7.82;100.00;101491.00;5039213;28;20040;-72
2024/02/21 07:30:43;;;;;;;13.93;8.13;;;;;;;7.81;100.00;101500.06;5038826;28;20037;-71
2024/02/21 07:33:09;;;;;;;13.43;8.30;;;;;;;7.84;100.00;101501.44;5039294;28;20497;-71
2024/02/21 07:35:37;;;;;;;12.77;7.65;;;;;;;7.84;100.00;101504.09;5022555;28;20052;-72
2024/02/21 07:38:07;;;;;;;12.35;7.80;;;;;;;7.82;100.00;101500.88;5039066;28;20036;-72
2024/02/21 07:40:32;;;;;;;12.73;7.63;;;;;;;7.82;100.00;101499.00;5040615;28;20037;-71
2024/02/21 07:42:58;;;;;;;11.85;7.80;;;;;;;7.81;100.00;101494.72;5008363;28;20032;-70
2024/02/21 07:45:24;;;;;;;13.85;7.75;;;;;;;7.83;100.00;101500.63;5037921;28;20194;-72
2024/02/21 07:47:50;;;;;;;10.00;6.25;;;;;;;7.82;100.00;101496.34;5042725;28;20060;-71
2024/02/21 07:50:16;;;;;;;8.48;5.90;;;;;;;7.85;100.00;101495.06;5038851;28;20029;-71
2024/02/21 07:52:43;;;;;;;11.23;6.03;;;;;;;7.82;100.00;101488.34;5037636;28;20486;-71
2024/02/21 07:55:10;;;;;;;9.85;6.28;;;;;;;7.86;100.00;101484.19;5038571;28;20112;-73
2024/02/21 07:57:35;;;;;;;8.63;5.90;;;;;;;7.87;100.00;101483.13;5036526;28;20034;-71
2024/02/21 08:00:03;;;;;;;8.10;5.30;;;;;;;7.88;100.00;101482.09;5011111;28;20086;-70
2024/02/21 08:02:38;;;;;;;7.15;5.13;;;;;;;7.89;100.00;101491.72;5035701;28;20040;-70
2024/02/21 08:05:03;;;;;;;6.47;4.68;;;;;;;7.89;100.00;101491.72;5021411;28;20037;-71
2024/02/21 08:07:30;;;;;;;7.32;4.97;;;;;;;7.91;100.00;101489.59;5020215;28;20090;-71
2024/02/21 08:09:56;;;;;;;6.72;4.53;;;;;;;7.91;100.00;101492.28;5037472;28;20060;-72
2024/02/21 08:12:22;;;;;;;7.78;4.90;;;;;;;7.94;100.00;101483.00;5019308;28;20140;-72
2024/02/21 08:14:47;;;;;;;6.30;4.03;;;;;;;7.94;100.00;101489.16;5041290;28;20029;-70
2024/02/21 08:17:13;;;;;;;5.90;4.20;;;;;;;7.94;100.00;101489.16;5036533;28;20071;-71
2024/02/21 08:19:39;;;;;;;6.43;4.57;;;;;;;7.99;100.00;101484.97;5041470;28;20033;-71
2024/02/21 08:22:04;;;;;;;5.20;4.00;;;;;;;7.99;100.00;101485.75;5040385;28;20037;-70
2024/02/21 08:24:30;;;;;;;5.90;4.00;;;;;;;8.04;100.00;101490.41;5042315;28;20409;-72
2024/02/21 08:26:55;;;;;;;5.60;4.20;;;;;;;8.05;100.00;101484.84;5038314;28;20032;-71
2024/02/21 08:32:17;;;;;;;7.28;3.90;;;;;;;8.07;100.00;101482.75;4984946;28;20031;-79
2024/02/21 08:34:43;;;;;;;8.75;4.65;;;;;;;8.07;100.00;101493.44;4954967;28;20039;-78
2024/02/21 08:37:10;;;;;;;6.40;4.43;;;;;;;8.04;100.00;101482.41;4970913;28;20096;-78
2024/02/21 08:39:36;;;;;;;9.52;4.80;;;;;;;8.04;100.00;101485.06;4977528;28;20042;-78
2024/02/21 08:42:02;;;;;;;6.93;4.97;;;;;;;8.06;100.00;101472.31;4980632;28;20261;-78
2024/02/21 08:44:28;;;;;;;7.90;4.70;;;;;;;8.04;100.00;101471.75;4982617;28;20038;-77
2024/02/21 08:46:55;;;;;;;7.35;3.90;;;;;;;8.02;100.00;101468.50;4981239;28;20493;-77
2024/02/21 08:49:20;;;;;;;9.60;3.53;;;;;;;7.99;100.00;101469.75;4961568;28;20081;-78
2024/02/21 08:51:46;;;;;;;8.70;3.70;;;;;;;7.98;100.00;101478.81;4980669;28;20101;-78
2024/02/21 08:54:12;;;;;;;9.10;3.00;;;;;;;8.00;100.00;101475.94;4961070;28;20042;-80
2024/02/21 08:56:38;;;;;;;5.18;2.45;;;;;;;7.87;100.00;101488.47;4969466;28;20072;-79
2024/02/21 08:59:04;;;;;;;6.72;2.55;;;;;;;7.89;100.00;101486.38;4951094;28;20038;-78
2024/02/21 09:01:30;;;;;;;7.78;3.00;;;;;;;7.91;100.00;101489.59;4980689;28;20049;-79
2024/02/21 09:03:56;;;;;;;9.02;2.45;;;;;;;7.92;100.00;101477.91;4984125;28;20602;-78
2024/02/21 09:06:22;;;;;;;6.28;2.38;;;;;;;7.92;100.00;101480.59;4984342;28;20034;-78
2024/02/21 09:08:48;;;;;;;13.15;2.55;;;;;;;7.89;100.00;101480.22;4963828;28;20042;-78
2024/02/21 09:11:15;;;;;;;7.93;1.98;;;;;;;7.87;100.00;101480.47;4992182;28;20034;-77
2024/02/21 09:13:41;;;;;;;10.48;2.20;;;;;;;7.87;100.00;101480.47;4967875;28;21799;-79
2024/02/21 09:16:08;;;;;;;10.02;2.00;;;;;;;7.86;100.00;101476.19;4977588;28;20053;-79
2024/02/21 09:18:34;;;;;;;12.85;2.58;;;;;;;7.85;100.00;101476.38;4970884;28;20049;-77
2024/02/21 09:21:00;;;;;;;8.05;2.50;;;;;;;7.87;100.00;101477.81;4977226;28;20034;-79
2024/02/21 09:23:26;;;;;;;15.57;2.38;;;;;;;7.90;100.00;101479.97;4976563;28;20077;-79
2024/02/21 09:25:52;;;;;;;9.75;2.28;;;;;;;7.82;100.00;101480.34;4987092;28;20096;-80
2024/02/21 09:28:17;;;;;;;9.80;2.55;;;;;;;7.84;100.00;101472.09;4953176;28;20037;-78
2024/02/21 09:30:44;;;;;;;9.88;2.95;;;;;;;7.84;100.00;101464.91;4977356;28;20562;-77
2024/02/21 09:33:09;;;;;;;11.07;2.38;;;;;;;7.85;100.00;101461.19;4983711;28;20500;-77
2024/02/21 09:35:36;;;;;;;9.75;2.53;;;;;;;7.82;100.00;101468.88;4957227;28;20060;-78
2024/02/21 09:38:03;;;;;;;9.30;2.47;;;;;;;7.84;100.00;101467.59;4963511;28;20031;-78
2024/02/21 09:40:29;;;;;;;10.43;2.60;;;;;;;7.86;100.00;101459.38;4966622;28;20066;-78
2024/02/21 09:43:06;;;;;;;7.75;2.35;;;;;;;7.85;100.00;101455.06;4952684;28;20583;-79
2024/02/21 09:45:33;;;;;;;6.43;2.40;;;;;;;7.88;100.00;101452.75;4964685;28;20043;-77
2024/02/21 09:48:05;;;;;;;11.57;3.03;;;;;;;7.88;100.00;101447.41;4979653;28;20034;-77
2024/02/21 09:50:33;;;;;;;8.18;3.35;;;;;;;7.84;100.00;101435.59;4968359;28;20046;-78
2024/02/21 09:53:02;;;;;;;6.72;2.63;;;;;;;7.88;100.00;101439.41;4967614;28;20039;-77
2024/02/21 09:55:32;;;;;;;7.88;3.13;;;;;;;7.90;100.00;101437.31;4997590;28;20675;-77
2024/02/21 09:57:58;;;;;;;7.03;3.08;;;;;;;7.90;100.00;101441.84;4998674;28;20058;-78
2024/02/21 10:00:30;;;;;;;7.30;4.38;;;;;;;7.90;100.00;101434.66;4956158;28;20579;-80
2024/02/21 10:02:56;;;;;;;7.70;4.05;;;;;;;7.94;100.00;101440.34;4993324;28;20113;-78
2024/02/21 10:05:21;;;;;;;7.95;3.85;;;;;;;7.93;100.00;101439.53;4966218;28;20068;-77
2024/02/21 10:07:49;;;;;;;9.25;4.90;;;;;;;7.97;100.00;101428.38;4976952;28;20085;-77
2024/02/21 10:10:16;;;;;;;10.63;5.95;;;;;;;7.97;100.00;101434.53;4976876;28;20035;-77
2024/02/21 10:12:54;;;;;;;12.48;6.57;;;;;;;8.01;100.00;101434.88;4981448;28;20061;-77
2024/02/21 10:15:24;;;;;;;13.13;6.70;;;;;;;8.02;100.00;101433.81;4979364;28;20519;-79
2024/02/21 10:18:06;;;;;;;12.95;7.55;;;;;;;8.02;100.00;101425.81;4987365;28;20039;-77
2024/02/21 10:20:33;;;;;;;11.63;7.97;;;;;;;8.01;100.00;101430.34;4981940;28;20034;-80
2024/02/21 10:23:10;;;;;;;13.82;8.15;;;;;;;8.02;100.00;101439.16;4973430;28;20105;-79
2024/02/21 10:25:43;;;;;;;17.70;9.20;;;;;;;8.03;100.00;101432.78;4961842;28;20046;-79
2024/02/21 10:28:11;;;;;;;17.13;9.55;;;;;;;8.06;100.00;101434.97;4981583;28;20046;-79
2024/02/21 10:30:37;;;;;;;19.42;8.85;;;;;;;8.10;100.00;101433.44;4946292;28;20803;-79
2024/02/21 10:33:05;;;;;;;17.20;9.43;;;;;;;8.13;100.00;101431.13;4989654;28;20045;-78
2024/02/21 10:35:33;;;;;;;21.77;10.10;;;;;;;8.13;100.00;101428.47;4948446;28;20030;-82
2024/02/21 10:37:59;;;;;;;21.20;10.38;;;;;;;8.14;100.00;101422.09;5001099;28;20044;-82
2024/02/21 10:40:30;;;;;;;20.42;10.18;;;;;;;8.11;100.00;101421.72;4972090;28;20023;-83
2024/02/21 10:42:58;;;;;;;19.52;10.65;;;;;;;8.18;100.00;101417.06;4983497;28;20041;-83
2024/02/21 10:45:31;;;;;;;23.35;12.27;;;;;;;8.23;100.00;101416.38;5005147;28;20054;-83
2024/02/21 10:48:07;;;;;;;21.95;11.77;;;;;;;8.18;100.00;101414.41;4980874;28;20096;-83
2024/02/21 10:50:45;;;;;;;21.85;11.73;;;;;;;8.20;100.00;101409.66;4986885;28;20043;-83
2024/02/21 10:53:44;;;;;;;24.10;10.88;;;;;;;8.22;100.00;101415.56;5007207;28;20043;-83
2024/02/21 10:56:26;;;;;;;23.35;12.35;;;;;;;8.21;100.00;101397.94;5007335;28;20038;-82
2024/02/21 10:58:53;;;;;;;22.52;11.98;;;;;;;8.19;100.00;101406.16;5010081;28;20030;-82
2024/02/21 11:01:28;;;;;;;25.33;11.20;;;;;;;8.20;100.00;101398.97;5015335;28;20032;-82
2024/02/21 11:04:02;;;;;;;20.92;10.20;;;;;;;8.19;100.00;101384.00;4995557;28;20057;-82
2024/02/21 11:06:29;;;;;;;24.52;11.23;;;;;;;8.24;100.00;101391.28;4976407;28;20487;-80
2024/02/21 11:09:06;;;;;;;21.15;10.35;;;;;;;8.17;100.00;101396.78;5006827;28;20064;-81
2024/02/21 11:11:41;;;;;;;25.88;10.40;;;;;;;8.15;100.00;101393.53;4985556;28;20030;-81
2024/02/21 11:14:18;;;;;;;21.05;10.93;;;;;;;8.15;100.00;101381.00;4992810;28;20045;-80